Historyczne dane pomiarowe

Dodano dane terminowe – wersja testowa.

Dane z okresu 1951-2019

Wersja bazy: 1.34 [2019-03-16, lista zmian], aktualizacja planowana na 2019-04-15

Dane meteo z obszaru Polski uzyskane na podstawie danych udostępnionych przez Instytut Meteorologii i Gospodarki Wodnej – Państwowy Instytut Badawczy.

 

Wybierz Datę:    

       

TemperaturaWilgotnośćZachmurzenieWiatrCiśnienieWidzialnośćZjawiska
 Data    tng td wb rh cc ccl cl cm ch dir g1 g2 mslp ppp      
1999-06-28 00:00:00 9.8--- 8.7 9.293wxwx0wx--1017.3 994.8 0.0---wx
1999-06-28 01:00:00 9.2--- 8.4 8.895wxwx0wx--1017.1 994.5----wx
1999-06-28 02:00:00 9.0--- 7.8 8.492wxwxwx0wx--1016.9 994.3----wx
1999-06-28 03:00:00 12.4--- 11.7 12.095wxwxwx0wx--1017.0 994.7----wx
1999-06-28 04:00:00 16.0--- 15.0 15.494wxwxwx0wx--1016.8 994.7----wx
1999-06-28 05:00:00 19.0--- 16.2 17.284wxwxwx1wx--1016.5 994.7----wx
1999-06-28 06:00:00 20.4--- 17.3 18.483wxwxwx1wx--1016.4 994.7 0.0---wx
1999-06-28 07:00:00 22.2--- 18.3 19.678wxwxwxwx2wx--1016.3 994.7----wx
1999-06-28 08:00:00 23.6--- 18.2 20.072wxwxwxwx2wx--1016.1 994.6----wx
1999-06-28 09:00:00 24.6--- 17.6 20.065wxwxwxwx2wx--1016.1 994.7----wx
1999-06-28 10:00:00 25.1--- 17.7 20.264wxwxwxwx2wx--1015.8 994.4----wx
1999-06-28 11:00:00 25.4--- 18.9 21.067wxwxwxwx3wx--1015.2 993.9----wx
1999-06-28 12:00:00 26.5--- 19.0 21.463wxwxwxwx1wx--1014.9 993.7 0.0---wx
1999-06-28 13:00:00 26.6--- 18.3 21.060wxwxwxwx2wx--1014.5 993.3----wx
1999-06-28 14:00:00 27.0--- 18.0 21.058wxwxwxwx2wx--1014.2 993.0----wx
1999-06-28 15:00:00 27.0--- 17.0 20.454wxwxwxwx3wx--1013.8 992.6----wx
1999-06-28 16:00:00 27.0--- 17.0 20.454wxwxwxwx2wx--1013.5 992.3----wx
1999-06-28 17:00:00 26.8--- 17.6 20.757wxwxwxwx1wx--1013.3 992.1----wx
1999-06-28 18:00:00 26.4--- 17.9 20.759wxwxwxwx0wx--1013.7 992.5 0.0---wx
1999-06-28 19:00:00 24.2--- 19.2 20.874wxwxwxwx1wx--1014.2 992.8----wx
1999-06-28 20:00:00 20.8--- 18.2 19.185wxwxwxwx0wx--1014.5 992.9----wx
1999-06-28 21:00:00 19.8--- 17.7 18.487wxwxwxwx2wx--1015.1 993.4----wx
1999-06-28 22:00:00 19.8--- 17.3 18.286wxwxwxwx1wx--1014.7 993.0----wx
1999-06-28 23:00:00 18.2--- 17.0 17.492wxwxwxwx1wx--1015.4 993.5----wx

 

Źródłem pochodzenia danych jest Instytut Meteorologii i Gospodarki Wodnej – Państwowy Instytut Badawczy. Dane Instytutu Meteorologii i Gospodarki Wodnej – Państwowego Instytutu Badawczego zostały przetworzone.

Dane źródłowe można odnaleźć na stronie https://dane.imgw.pl